CYGQ

Geraldton Greenstone Regional Airport

Geraldton, Ontario, Canada
TAF CYGQ 221938Z 2220/2308 03006G16KT P6SM BKN110 BECMG 2222/2224 07008KT FEW100 RMK NXT FCST BY 230200Z
Issued Valid From Valid To
Jul-22 @ 19:38 UTC
(47 minutes ago)
Jul-22 @ 20:00 UTC
(25 minutes ago)
Jul-23 @ 08:00 UTC
(in 12 hours)
Jul-22 @ 20:00 to Jul-22 @ 22:00
TAF CYGQ 221938Z 2220/2308 03006G16KT P6SM BKN110
Wind Visibility Clouds
30° at 6 knots
 Gusting to 16 knots
Greater than 6 miles
  • Broken at 11,000' AGL
Becoming Jul-22 @ 22:00 to Jul-23 @ 08:00
BECMG 2222/2224 07008KT FEW100 RMK NXT FCST BY 230200Z
Wind Visibility Clouds
70° at 8 knots Greater than 6 miles
  • Few at 10,000' AGL
TAF CYGQ 221938Z 2220/2308 03006G16KT P6SM BKN110 BECMG 2222/2224 07008KT FEW100 RMK NXT FCST BY 230200Z
Issued Jul-22 @ 19:38 UTC
(47 minutes ago)
Valid From Jul-22 @ 20:00 UTC
(25 minutes ago)
Valid To Jul-23 @ 08:00 UTC
(in 12 hours)
Jul-22 @ 20:00 - Jul-22 @ 22:00
Wind Visibility
30° at 6 knots
 Gusting to 16 knots
Greater than 6 miles
Clouds
  • Broken at 11,000' AGL
Becoming Jul-22 @ 22:00 - Jul-23 @ 08:00
Wind Visibility
70° at 8 knots Greater than 6 miles
Clouds
  • Few at 10,000' AGL